sensor_id;sensor_type;location;lat;lon;timestamp;pressure;altitude;pressure_sealevel;temperature;humidity
44734;BME280;30462;52.446;-1.930;2024-03-02T00:00:14;97605.63281;;;;
44734;BME280;30462;52.446;-1.930;2024-03-02T00:01:13;97606.9375;;;;
44734;BME280;30462;52.446;-1.930;2024-03-02T00:02:13;97603.80078;;;;
44734;BME280;30462;52.446;-1.930;2024-03-02T00:03:14;97603.63281;;;;
44734;BME280;30462;52.446;-1.930;2024-03-02T00:04:14;97604.95313;;;;
44734;BME280;30462;52.446;-1.930;2024-03-02T00:05:15;97602.60547;;;;
44734;BME280;30462;52.446;-1.930;2024-03-02T00:06:14;97600.45313;;;;
44734;BME280;30462;52.446;-1.930;2024-03-02T00:07:14;97598.49219;;;;
44734;BME280;30462;52.446;-1.930;2024-03-02T00:08:14;97598.50781;;;;
44734;BME280;30462;52.446;-1.930;2024-03-02T00:09:13;97600.25;;;;
44734;BME280;30462;52.446;-1.930;2024-03-02T00:10:16;97597.42188;;;;
44734;BME280;30462;52.446;-1.930;2024-03-02T00:11:14;97596.99219;;;;
44734;BME280;30462;52.446;-1.930;2024-03-02T00:12:15;97597.63672;;;;
44734;BME280;30462;52.446;-1.930;2024-03-02T00:13:14;97598.83984;;;;
44734;BME280;30462;52.446;-1.930;2024-03-02T00:14:14;97598.07422;;;;
44734;BME280;30462;52.446;-1.930;2024-03-02T00:16:14;97596.23438;;;;
44734;BME280;30462;52.446;-1.930;2024-03-02T00:17:21;97594.1875;;;;
44734;BME280;30462;52.446;-1.930;2024-03-02T00:18:15;97593.58203;;;;
44734;BME280;30462;52.446;-1.930;2024-03-02T00:19:14;97589.28516;;;;
44734;BME280;30462;52.446;-1.930;2024-03-02T00:20:14;97589.32031;;;;
44734;BME280;30462;52.446;-1.930;2024-03-02T00:21:14;97587.66016;;;;
44734;BME280;30462;52.446;-1.930;2024-03-02T00:22:14;97589.11719;;;;
44734;BME280;30462;52.446;-1.930;2024-03-02T00:23:15;97590.85547;;;;
44734;BME280;30462;52.446;-1.930;2024-03-02T00:24:19;97591.80859;;;;
44734;BME280;30462;52.446;-1.930;2024-03-02T00:25:14;97589.66016;;;;
44734;BME280;30462;52.446;-1.930;2024-03-02T00:26:14;97589.06641;;;;
44734;BME280;30462;52.446;-1.930;2024-03-02T00:27:14;97587.11328;;;;
44734;BME280;30462;52.446;-1.930;2024-03-02T00:28:19;97592.80469;;;;
44734;BME280;30462;52.446;-1.930;2024-03-02T00:29:15;97590.83984;;;;
44734;BME280;30462;52.446;-1.930;2024-03-02T00:31:14;97591.97266;;;;
44734;BME280;30462;52.446;-1.930;2024-03-02T00:32:16;97592.58594;;;;
44734;BME280;30462;52.446;-1.930;2024-03-02T00:33:14;97590.90625;;;;
44734;BME280;30462;52.446;-1.930;2024-03-02T00:34:14;97590.71484;;;;
44734;BME280;30462;52.446;-1.930;2024-03-02T00:35:14;97589.39063;;;;
44734;BME280;30462;52.446;-1.930;2024-03-02T00:36:14;97590.74609;;;;
44734;BME280;30462;52.446;-1.930;2024-03-02T00:37:14;97588.08984;;;;
44734;BME280;30462;52.446;-1.930;2024-03-02T00:38:14;97587.98047;;;;
44734;BME280;30462;52.446;-1.930;2024-03-02T00:39:14;97590.07422;;;;
44734;BME280;30462;52.446;-1.930;2024-03-02T00:40:14;97589.01563;;;;
44734;BME280;30462;52.446;-1.930;2024-03-02T00:41:15;97588.15234;;;;
44734;BME280;30462;52.446;-1.930;2024-03-02T00:42:14;97588.25;;;;
44734;BME280;30462;52.446;-1.930;2024-03-02T00:44:13;97588.33984;;;;
44734;BME280;30462;52.446;-1.930;2024-03-02T00:45:14;97587.77344;;;;
44734;BME280;30462;52.446;-1.930;2024-03-02T00:46:15;97587.77344;;;;
44734;BME280;30462;52.446;-1.930;2024-03-02T00:47:14;97585.76953;;;;
44734;BME280;30462;52.446;-1.930;2024-03-02T00:48:14;97588.34375;;;;
44734;BME280;30462;52.446;-1.930;2024-03-02T00:49:18;97588.28516;;;;
44734;BME280;30462;52.446;-1.930;2024-03-02T00:50:16;97587.48047;;;;
44734;BME280;30462;52.446;-1.930;2024-03-02T00:51:14;97587.26953;;;;
44734;BME280;30462;52.446;-1.930;2024-03-02T00:52:14;97584.85547;;;;
44734;BME280;30462;52.446;-1.930;2024-03-02T00:53:14;97585.22266;;;;
44734;BME280;30462;52.446;-1.930;2024-03-02T00:54:14;97583.27344;;;;
44734;BME280;30462;52.446;-1.930;2024-03-02T00:55:14;97583.69141;;;;
44734;BME280;30462;52.446;-1.930;2024-03-02T00:56:14;97583.98828;;;;
44734;BME280;30462;52.446;-1.930;2024-03-02T00:57:14;97582.625;;;;
44734;BME280;30462;52.446;-1.930;2024-03-02T00:58:13;97584.94531;;;;
44734;BME280;30462;52.446;-1.930;2024-03-02T00:59:14;97581.42969;;;;
44734;BME280;30462;52.446;-1.930;2024-03-02T01:00:15;97585.49609;;;;
44734;BME280;30462;52.446;-1.930;2024-03-02T01:01:14;97584.46875;;;;
44734;BME280;30462;52.446;-1.930;2024-03-02T01:02:14;97584.14844;;;;
44734;BME280;30462;52.446;-1.930;2024-03-02T01:03:14;97585.8125;;;;
44734;BME280;30462;52.446;-1.930;2024-03-02T01:04:14;97585.26953;;;;
44734;BME280;30462;52.446;-1.930;2024-03-02T01:05:14;97585.05078;;;;
44734;BME280;30462;52.446;-1.930;2024-03-02T01:06:13;97584.46875;;;;
44734;BME280;30462;52.446;-1.930;2024-03-02T01:07:13;97582.93359;;;;
44734;BME280;30462;52.446;-1.930;2024-03-02T01:08:14;97578.83203;;;;
44734;BME280;30462;52.446;-1.930;2024-03-02T01:09:14;97577.69531;;;;
44734;BME280;30462;52.446;-1.930;2024-03-02T01:10:14;97578.4375;;;;
44734;BME280;30462;52.446;-1.930;2024-03-02T01:11:14;97577.73438;;;;
44734;BME280;30462;52.446;-1.930;2024-03-02T01:12:14;97575.79688;;;;
44734;BME280;30462;52.446;-1.930;2024-03-02T01:13:14;97575.63281;;;;
44734;BME280;30462;52.446;-1.930;2024-03-02T01:14:14;97574.87109;;;;
44734;BME280;30462;52.446;-1.930;2024-03-02T01:15:14;97574.72656;;;;
44734;BME280;30462;52.446;-1.930;2024-03-02T01:16:14;97574.82422;;;;
44734;BME280;30462;52.446;-1.930;2024-03-02T01:17:14;97572.44141;;;;
44734;BME280;30462;52.446;-1.930;2024-03-02T01:18:13;97574.29688;;;;
44734;BME280;30462;52.446;-1.930;2024-03-02T01:19:14;97572.51563;;;;
44734;BME280;30462;52.446;-1.930;2024-03-02T01:20:14;97573.82031;;;;
44734;BME280;30462;52.446;-1.930;2024-03-02T01:21:14;97576.46094;;;;
44734;BME280;30462;52.446;-1.930;2024-03-02T01:22:13;97577.80078;;;;
44734;BME280;30462;52.446;-1.930;2024-03-02T01:23:14;97574.73047;;;;
44734;BME280;30462;52.446;-1.930;2024-03-02T01:24:14;97576.21484;;;;
44734;BME280;30462;52.446;-1.930;2024-03-02T01:25:14;97576.56641;;;;
44734;BME280;30462;52.446;-1.930;2024-03-02T01:26:14;97571.42578;;;;
44734;BME280;30462;52.446;-1.930;2024-03-02T01:27:13;97572.64453;;;;
44734;BME280;30462;52.446;-1.930;2024-03-02T01:28:14;97574.83203;;;;
44734;BME280;30462;52.446;-1.930;2024-03-02T01:29:14;97571.51563;;;;
44734;BME280;30462;52.446;-1.930;2024-03-02T01:30:13;97573.21484;;;;
44734;BME280;30462;52.446;-1.930;2024-03-02T01:31:14;97570.05859;;;;
44734;BME280;30462;52.446;-1.930;2024-03-02T01:32:14;97570.42969;;;;
44734;BME280;30462;52.446;-1.930;2024-03-02T01:33:14;97568.60156;;;;
44734;BME280;30462;52.446;-1.930;2024-03-02T01:34:14;97566.92969;;;;
44734;BME280;30462;52.446;-1.930;2024-03-02T01:35:14;97569.24609;;;;
44734;BME280;30462;52.446;-1.930;2024-03-02T01:36:14;97568.10938;;;;
44734;BME280;30462;52.446;-1.930;2024-03-02T01:37:14;97570.05469;;;;
44734;BME280;30462;52.446;-1.930;2024-03-02T01:38:13;97569.88672;;;;
44734;BME280;30462;52.446;-1.930;2024-03-02T01:39:14;97568.42578;;;;
44734;BME280;30462;52.446;-1.930;2024-03-02T01:40:14;97565.78906;;;;
44734;BME280;30462;52.446;-1.930;2024-03-02T01:41:14;97564.21094;;;;
44734;BME280;30462;52.446;-1.930;2024-03-02T01:42:14;97564.46484;;;;
44734;BME280;30462;52.446;-1.930;2024-03-02T01:43:14;97564.91016;;;;
44734;BME280;30462;52.446;-1.930;2024-03-02T01:44:14;97565.66406;;;;
44734;BME280;30462;52.446;-1.930;2024-03-02T01:45:14;97565.71875;;;;
44734;BME280;30462;52.446;-1.930;2024-03-02T01:46:14;97565.70703;;;;
44734;BME280;30462;52.446;-1.930;2024-03-02T01:47:13;97565.23438;;;;
44734;BME280;30462;52.446;-1.930;2024-03-02T01:48:14;97564.50391;;;;
44734;BME280;30462;52.446;-1.930;2024-03-02T01:49:14;97563.14453;;;;
44734;BME280;30462;52.446;-1.930;2024-03-02T01:50:14;97565.46484;;;;
44734;BME280;30462;52.446;-1.930;2024-03-02T01:51:14;97563.78906;;;;
44734;BME280;30462;52.446;-1.930;2024-03-02T01:52:14;97564.24609;;;;
44734;BME280;30462;52.446;-1.930;2024-03-02T01:53:14;97565.78906;;;;
44734;BME280;30462;52.446;-1.930;2024-03-02T01:54:14;97563.79297;;;;
44734;BME280;30462;52.446;-1.930;2024-03-02T01:55:14;97564.3125;;;;
44734;BME280;30462;52.446;-1.930;2024-03-02T01:56:14;97563.19141;;;;
44734;BME280;30462;52.446;-1.930;2024-03-02T01:57:14;97560.55469;;;;
44734;BME280;30462;52.446;-1.930;2024-03-02T01:58:14;97561.27734;;;;
44734;BME280;30462;52.446;-1.930;2024-03-02T01:59:13;97560.94141;;;;
44734;BME280;30462;52.446;-1.930;2024-03-02T02:00:15;97560.1875;;;;
44734;BME280;30462;52.446;-1.930;2024-03-02T02:01:14;97556.88672;;;;
44734;BME280;30462;52.446;-1.930;2024-03-02T02:02:14;97557.05078;;;;
44734;BME280;30462;52.446;-1.930;2024-03-02T02:03:14;97557.99219;;;;
44734;BME280;30462;52.446;-1.930;2024-03-02T02:04:13;97555.82031;;;;
44734;BME280;30462;52.446;-1.930;2024-03-02T02:05:14;97556.73828;;;;
44734;BME280;30462;52.446;-1.930;2024-03-02T02:06:14;97561.36719;;;;
44734;BME280;30462;52.446;-1.930;2024-03-02T02:07:13;97554.28906;;;;
44734;BME280;30462;52.446;-1.930;2024-03-02T02:08:14;97560.71094;;;;
44734;BME280;30462;52.446;-1.930;2024-03-02T02:09:14;97555.80078;;;;
44734;BME280;30462;52.446;-1.930;2024-03-02T02:10:14;97554.42969;;;;
44734;BME280;30462;52.446;-1.930;2024-03-02T02:11:14;97553.90234;;;;
44734;BME280;30462;52.446;-1.930;2024-03-02T02:12:14;97552.34375;;;;
44734;BME280;30462;52.446;-1.930;2024-03-02T02:13:14;97555.00391;;;;
44734;BME280;30462;52.446;-1.930;2024-03-02T02:14:14;97555.06641;;;;
44734;BME280;30462;52.446;-1.930;2024-03-02T02:16:14;97550.5625;;;;
44734;BME280;30462;52.446;-1.930;2024-03-02T02:17:14;97553.79297;;;;
44734;BME280;30462;52.446;-1.930;2024-03-02T02:18:14;97545.28516;;;;
44734;BME280;30462;52.446;-1.930;2024-03-02T02:19:14;97541.26563;;;;
44734;BME280;30462;52.446;-1.930;2024-03-02T02:20:14;97542.25391;;;;
44734;BME280;30462;52.446;-1.930;2024-03-02T02:21:13;97542.13672;;;;
44734;BME280;30462;52.446;-1.930;2024-03-02T02:22:14;97541.38281;;;;
44734;BME280;30462;52.446;-1.930;2024-03-02T02:23:14;97538.51953;;;;
44734;BME280;30462;52.446;-1.930;2024-03-02T02:24:14;97538.63281;;;;
44734;BME280;30462;52.446;-1.930;2024-03-02T02:25:14;97542.0625;;;;
44734;BME280;30462;52.446;-1.930;2024-03-02T02:26:14;97542.14844;;;;
44734;BME280;30462;52.446;-1.930;2024-03-02T02:27:14;97540.91797;;;;
44734;BME280;30462;52.446;-1.930;2024-03-02T02:28:13;97538.96875;;;;
44734;BME280;30462;52.446;-1.930;2024-03-02T02:29:14;97537.67188;;;;
44734;BME280;30462;52.446;-1.930;2024-03-02T02:31:14;97534.01563;;;;
44734;BME280;30462;52.446;-1.930;2024-03-02T02:32:14;97535.04688;;;;
44734;BME280;30462;52.446;-1.930;2024-03-02T02:33:13;97534.93359;;;;
44734;BME280;30462;52.446;-1.930;2024-03-02T02:34:17;97533.33984;;;;
44734;BME280;30462;52.446;-1.930;2024-03-02T02:35:14;97531.58594;;;;
44734;BME280;30462;52.446;-1.930;2024-03-02T02:36:13;97530.75391;;;;
44734;BME280;30462;52.446;-1.930;2024-03-02T02:37:14;97530.20313;;;;
44734;BME280;30462;52.446;-1.930;2024-03-02T02:38:14;97529.31641;;;;
44734;BME280;30462;52.446;-1.930;2024-03-02T02:39:15;97527.60156;;;;
44734;BME280;30462;52.446;-1.930;2024-03-02T02:40:14;97529.63672;;;;
44734;BME280;30462;52.446;-1.930;2024-03-02T02:41:14;97532.87891;;;;
44734;BME280;30462;52.446;-1.930;2024-03-02T02:42:13;97531.39844;;;;
44734;BME280;30462;52.446;-1.930;2024-03-02T02:43:14;97529.30078;;;;
44734;BME280;30462;52.446;-1.930;2024-03-02T02:44:14;97534.92578;;;;
44734;BME280;30462;52.446;-1.930;2024-03-02T02:45:14;97534.80859;;;;
44734;BME280;30462;52.446;-1.930;2024-03-02T02:46:14;97532.36328;;;;
44734;BME280;30462;52.446;-1.930;2024-03-02T02:47:13;97528.66797;;;;
44734;BME280;30462;52.446;-1.930;2024-03-02T02:48:14;97530.91406;;;;
44734;BME280;30462;52.446;-1.930;2024-03-02T02:49:14;97528.91797;;;;
44734;BME280;30462;52.446;-1.930;2024-03-02T02:50:14;97526.26172;;;;
44734;BME280;30462;52.446;-1.930;2024-03-02T02:51:14;97527.62891;;;;
44734;BME280;30462;52.446;-1.930;2024-03-02T02:52:13;97525.95313;;;;
44734;BME280;30462;52.446;-1.930;2024-03-02T02:53:14;97529.125;;;;
44734;BME280;30462;52.446;-1.930;2024-03-02T02:54:14;97530.42188;;;;
44734;BME280;30462;52.446;-1.930;2024-03-02T02:55:14;97532.08594;;;;
44734;BME280;30462;52.446;-1.930;2024-03-02T02:56:14;97530.36328;;;;
44734;BME280;30462;52.446;-1.930;2024-03-02T02:57:14;97533.37891;;;;
44734;BME280;30462;52.446;-1.930;2024-03-02T02:58:13;97529.79688;;;;
44734;BME280;30462;52.446;-1.930;2024-03-02T02:59:14;97535.03516;;;;
44734;BME280;30462;52.446;-1.930;2024-03-02T03:00:15;97532.63281;;;;
44734;BME280;30462;52.446;-1.930;2024-03-02T03:01:14;97531.03906;;;;
44734;BME280;30462;52.446;-1.930;2024-03-02T03:02:13;97533;;;;
44734;BME280;30462;52.446;-1.930;2024-03-02T03:03:14;97534.66797;;;;
44734;BME280;30462;52.446;-1.930;2024-03-02T03:04:14;97530.80469;;;;
44734;BME280;30462;52.446;-1.930;2024-03-02T03:05:14;97533.30469;;;;
44734;BME280;30462;52.446;-1.930;2024-03-02T03:06:14;97532.16406;;;;
44734;BME280;30462;52.446;-1.930;2024-03-02T03:07:14;97530.33984;;;;
44734;BME280;30462;52.446;-1.930;2024-03-02T03:08:13;97532.07422;;;;
44734;BME280;30462;52.446;-1.930;2024-03-02T03:09:14;97528.85156;;;;
44734;BME280;30462;52.446;-1.930;2024-03-02T03:10:14;97529.66016;;;;
44734;BME280;30462;52.446;-1.930;2024-03-02T03:11:14;97526.17188;;;;
44734;BME280;30462;52.446;-1.930;2024-03-02T03:12:14;97522.52344;;;;
44734;BME280;30462;52.446;-1.930;2024-03-02T03:13:13;97519.78125;;;;
44734;BME280;30462;52.446;-1.930;2024-03-02T03:14:14;97518.64063;;;;
44734;BME280;30462;52.446;-1.930;2024-03-02T03:15:14;97517.87891;;;;
44734;BME280;30462;52.446;-1.930;2024-03-02T03:16:14;97519.08203;;;;
44734;BME280;30462;52.446;-1.930;2024-03-02T03:17:14;97515.35156;;;;
44734;BME280;30462;52.446;-1.930;2024-03-02T03:18:14;97512.80469;;;;
44734;BME280;30462;52.446;-1.930;2024-03-02T03:19:14;97511.84375;;;;
44734;BME280;30462;52.446;-1.930;2024-03-02T03:20:14;97508.38672;;;;
44734;BME280;30462;52.446;-1.930;2024-03-02T03:21:14;97510.87891;;;;
44734;BME280;30462;52.446;-1.930;2024-03-02T03:22:14;97510.0625;;;;
44734;BME280;30462;52.446;-1.930;2024-03-02T03:23:13;97506.44922;;;;
44734;BME280;30462;52.446;-1.930;2024-03-02T03:24:14;97509.21094;;;;
44734;BME280;30462;52.446;-1.930;2024-03-02T03:25:14;97509.20313;;;;
44734;BME280;30462;52.446;-1.930;2024-03-02T03:26:14;97507.90234;;;;
44734;BME280;30462;52.446;-1.930;2024-03-02T03:27:14;97505.03516;;;;
44734;BME280;30462;52.446;-1.930;2024-03-02T03:28:14;97500.91797;;;;
44734;BME280;30462;52.446;-1.930;2024-03-02T03:29:14;97505.33594;;;;
44734;BME280;30462;52.446;-1.930;2024-03-02T03:30:14;97501.42578;;;;
44734;BME280;30462;52.446;-1.930;2024-03-02T03:31:14;97501.97266;;;;
44734;BME280;30462;52.446;-1.930;2024-03-02T03:32:13;97499.20703;;;;
44734;BME280;30462;52.446;-1.930;2024-03-02T03:33:14;97496.79297;;;;
44734;BME280;30462;52.446;-1.930;2024-03-02T03:34:14;97494.92188;;;;
44734;BME280;30462;52.446;-1.930;2024-03-02T03:35:14;97491.73828;;;;
44734;BME280;30462;52.446;-1.930;2024-03-02T03:36:14;97494.67578;;;;
44734;BME280;30462;52.446;-1.930;2024-03-02T03:37:14;97492.50391;;;;
44734;BME280;30462;52.446;-1.930;2024-03-02T03:38:14;97490.90234;;;;
44734;BME280;30462;52.446;-1.930;2024-03-02T03:39:14;97490.29297;;;;
44734;BME280;30462;52.446;-1.930;2024-03-02T03:40:14;97490.01563;;;;
44734;BME280;30462;52.446;-1.930;2024-03-02T03:41:14;97490.35156;;;;
44734;BME280;30462;52.446;-1.930;2024-03-02T03:42:14;97488.07813;;;;
44734;BME280;30462;52.446;-1.930;2024-03-02T03:43:14;97483;;;;
44734;BME280;30462;52.446;-1.930;2024-03-02T03:44:13;97483.26172;;;;
44734;BME280;30462;52.446;-1.930;2024-03-02T03:45:14;97484.73438;;;;
44734;BME280;30462;52.446;-1.930;2024-03-02T03:46:14;97486.98828;;;;
44734;BME280;30462;52.446;-1.930;2024-03-02T03:47:14;97483.36719;;;;
44734;BME280;30462;52.446;-1.930;2024-03-02T03:48:14;97485.4375;;;;
44734;BME280;30462;52.446;-1.930;2024-03-02T03:49:13;97484.83203;;;;
44734;BME280;30462;52.446;-1.930;2024-03-02T03:50:14;97481.69922;;;;
44734;BME280;30462;52.446;-1.930;2024-03-02T03:51:14;97484.08594;;;;
44734;BME280;30462;52.446;-1.930;2024-03-02T03:52:14;97484.82422;;;;
44734;BME280;30462;52.446;-1.930;2024-03-02T03:53:13;97480.26953;;;;
44734;BME280;30462;52.446;-1.930;2024-03-02T03:54:13;97484.69531;;;;
44734;BME280;30462;52.446;-1.930;2024-03-02T03:55:14;97476.92969;;;;
44734;BME280;30462;52.446;-1.930;2024-03-02T03:56:14;97478.28906;;;;
44734;BME280;30462;52.446;-1.930;2024-03-02T03:57:14;97476.07031;;;;
44734;BME280;30462;52.446;-1.930;2024-03-02T03:58:14;97475.70703;;;;
44734;BME280;30462;52.446;-1.930;2024-03-02T03:59:13;97476.55078;;;;
44734;BME280;30462;52.446;-1.930;2024-03-02T04:00:15;97473.60547;;;;
44734;BME280;30462;52.446;-1.930;2024-03-02T04:01:14;97472.34375;;;;
44734;BME280;30462;52.446;-1.930;2024-03-02T04:02:14;97481.30859;;;;
44734;BME280;30462;52.446;-1.930;2024-03-02T04:03:13;97480.10938;;;;
44734;BME280;30462;52.446;-1.930;2024-03-02T04:04:14;97478.50391;;;;
44734;BME280;30462;52.446;-1.930;2024-03-02T04:05:14;97476.25781;;;;
44734;BME280;30462;52.446;-1.930;2024-03-02T04:06:14;97478.23047;;;;
44734;BME280;30462;52.446;-1.930;2024-03-02T04:07:14;97473.12891;;;;
44734;BME280;30462;52.446;-1.930;2024-03-02T04:08:14;97474.00781;;;;
44734;BME280;30462;52.446;-1.930;2024-03-02T04:09:13;97475.92969;;;;
44734;BME280;30462;52.446;-1.930;2024-03-02T04:10:14;97476.64063;;;;
44734;BME280;30462;52.446;-1.930;2024-03-02T04:11:14;97475.0625;;;;
44734;BME280;30462;52.446;-1.930;2024-03-02T04:12:14;97478.52344;;;;
44734;BME280;30462;52.446;-1.930;2024-03-02T04:13:14;97478.5625;;;;
44734;BME280;30462;52.446;-1.930;2024-03-02T04:14:14;97473.875;;;;
44734;BME280;30462;52.446;-1.930;2024-03-02T04:15:14;97476.39063;;;;
44734;BME280;30462;52.446;-1.930;2024-03-02T04:16:14;97474.25;;;;
44734;BME280;30462;52.446;-1.930;2024-03-02T04:17:14;97473.75781;;;;
44734;BME280;30462;52.446;-1.930;2024-03-02T04:18:13;97474.34766;;;;
44734;BME280;30462;52.446;-1.930;2024-03-02T04:19:14;97472.21484;;;;
44734;BME280;30462;52.446;-1.930;2024-03-02T04:20:14;97476.69531;;;;
44734;BME280;30462;52.446;-1.930;2024-03-02T04:21:14;97479.06641;;;;
44734;BME280;30462;52.446;-1.930;2024-03-02T04:22:16;97479.49609;;;;
44734;BME280;30462;52.446;-1.930;2024-03-02T04:23:14;97475.81641;;;;
44734;BME280;30462;52.446;-1.930;2024-03-02T04:24:13;97474.91797;;;;
44734;BME280;30462;52.446;-1.930;2024-03-02T04:25:14;97478.48438;;;;
44734;BME280;30462;52.446;-1.930;2024-03-02T04:26:14;97475;;;;
44734;BME280;30462;52.446;-1.930;2024-03-02T04:27:14;97472.95313;;;;
44734;BME280;30462;52.446;-1.930;2024-03-02T04:28:14;97474.32031;;;;
44734;BME280;30462;52.446;-1.930;2024-03-02T04:29:13;97467.67188;;;;
44734;BME280;30462;52.446;-1.930;2024-03-02T04:30:14;97466.875;;;;
44734;BME280;30462;52.446;-1.930;2024-03-02T04:31:14;97472.46094;;;;
44734;BME280;30462;52.446;-1.930;2024-03-02T04:32:14;97470.52734;;;;
44734;BME280;30462;52.446;-1.930;2024-03-02T04:33:14;97470.36328;;;;
44734;BME280;30462;52.446;-1.930;2024-03-02T04:34:13;97470.01953;;;;
44734;BME280;30462;52.446;-1.930;2024-03-02T04:35:13;97474.37109;;;;
44734;BME280;30462;52.446;-1.930;2024-03-02T04:36:13;97475.23828;;;;
44734;BME280;30462;52.446;-1.930;2024-03-02T04:37:14;97471.45703;;;;
44734;BME280;30462;52.446;-1.930;2024-03-02T04:38:14;97471.84375;;;;
44734;BME280;30462;52.446;-1.930;2024-03-02T04:39:14;97469.50391;;;;
44734;BME280;30462;52.446;-1.930;2024-03-02T04:40:14;97466.98047;;;;
44734;BME280;30462;52.446;-1.930;2024-03-02T04:41:14;97467.52344;;;;
44734;BME280;30462;52.446;-1.930;2024-03-02T04:42:13;97467.25781;;;;
44734;BME280;30462;52.446;-1.930;2024-03-02T04:43:14;97465.85938;;;;
44734;BME280;30462;52.446;-1.930;2024-03-02T04:44:14;97464.67578;;;;
44734;BME280;30462;52.446;-1.930;2024-03-02T04:45:14;97468.58594;;;;
44734;BME280;30462;52.446;-1.930;2024-03-02T04:46:14;97468.74609;;;;
44734;BME280;30462;52.446;-1.930;2024-03-02T04:47:14;97466.15625;;;;
44734;BME280;30462;52.446;-1.930;2024-03-02T04:48:14;97467.61328;;;;
44734;BME280;30462;52.446;-1.930;2024-03-02T04:49:14;97466.33984;;;;
44734;BME280;30462;52.446;-1.930;2024-03-02T04:50:14;97466.55078;;;;
44734;BME280;30462;52.446;-1.930;2024-03-02T04:51:14;97468.48438;;;;
44734;BME280;30462;52.446;-1.930;2024-03-02T04:52:14;97469.01172;;;;
44734;BME280;30462;52.446;-1.930;2024-03-02T04:53:13;97467.15625;;;;
44734;BME280;30462;52.446;-1.930;2024-03-02T04:54:14;97470.00781;;;;
44734;BME280;30462;52.446;-1.930;2024-03-02T04:55:14;97469.20703;;;;
44734;BME280;30462;52.446;-1.930;2024-03-02T04:56:14;97467.05078;;;;
44734;BME280;30462;52.446;-1.930;2024-03-02T04:57:14;97466.86328;;;;
44734;BME280;30462;52.446;-1.930;2024-03-02T04:58:13;97464.64453;;;;
44734;BME280;30462;52.446;-1.930;2024-03-02T04:59:14;97467.88672;;;;
44734;BME280;30462;52.446;-1.930;2024-03-02T05:00:14;97466.28906;;;;
44734;BME280;30462;52.446;-1.930;2024-03-02T05:01:14;97469.05078;;;;
44734;BME280;30462;52.446;-1.930;2024-03-02T05:02:14;97466.44531;;;;
44734;BME280;30462;52.446;-1.930;2024-03-02T05:03:14;97466.74219;;;;
44734;BME280;30462;52.446;-1.930;2024-03-02T05:04:14;97466.39844;;;;
44734;BME280;30462;52.446;-1.930;2024-03-02T05:05:14;97465.37109;;;;
44734;BME280;30462;52.446;-1.930;2024-03-02T05:06:14;97464.23828;;;;
44734;BME280;30462;52.446;-1.930;2024-03-02T05:07:14;97463.04297;;;;
44734;BME280;30462;52.446;-1.930;2024-03-02T05:08:13;97464.60547;;;;
44734;BME280;30462;52.446;-1.930;2024-03-02T05:09:13;97464.60547;;;;
44734;BME280;30462;52.446;-1.930;2024-03-02T05:10:14;97464.9375;;;;
44734;BME280;30462;52.446;-1.930;2024-03-02T05:11:14;97466.45313;;;;
44734;BME280;30462;52.446;-1.930;2024-03-02T05:12:14;97464.39063;;;;
44734;BME280;30462;52.446;-1.930;2024-03-02T05:13:14;97469.80078;;;;
44734;BME280;30462;52.446;-1.930;2024-03-02T05:14:14;97466.875;;;;
44734;BME280;30462;52.446;-1.930;2024-03-02T05:15:14;97467.15234;;;;
44734;BME280;30462;52.446;-1.930;2024-03-02T05:16:14;97471.26563;;;;
44734;BME280;30462;52.446;-1.930;2024-03-02T05:17:14;97468.35156;;;;
44734;BME280;30462;52.446;-1.930;2024-03-02T05:18:14;97470.18359;;;;
44734;BME280;30462;52.446;-1.930;2024-03-02T05:19:13;97469.95703;;;;
44734;BME280;30462;52.446;-1.930;2024-03-02T05:20:14;97469.73828;;;;
44734;BME280;30462;52.446;-1.930;2024-03-02T05:21:14;97466.81641;;;;
44734;BME280;30462;52.446;-1.930;2024-03-02T05:22:14;97467.31641;;;;
44734;BME280;30462;52.446;-1.930;2024-03-02T05:23:14;97467.68359;;;;
44734;BME280;30462;52.446;-1.930;2024-03-02T05:24:13;97465.47656;;;;
44734;BME280;30462;52.446;-1.930;2024-03-02T05:25:14;97465.42969;;;;
44734;BME280;30462;52.446;-1.930;2024-03-02T05:26:14;97463.6875;;;;
44734;BME280;30462;52.446;-1.930;2024-03-02T05:27:14;97462.79297;;;;
44734;BME280;30462;52.446;-1.930;2024-03-02T05:28:14;97460.66016;;;;
44734;BME280;30462;52.446;-1.930;2024-03-02T05:29:14;97466.66016;;;;
44734;BME280;30462;52.446;-1.930;2024-03-02T05:30:14;97461.16016;;;;
44734;BME280;30462;52.446;-1.930;2024-03-02T05:31:15;97463.67969;;;;
44734;BME280;30462;52.446;-1.930;2024-03-02T05:32:14;97464.05859;;;;
44734;BME280;30462;52.446;-1.930;2024-03-02T05:33:13;97463.1875;;;;
44734;BME280;30462;52.446;-1.930;2024-03-02T05:34:14;97466.14063;;;;
44734;BME280;30462;52.446;-1.930;2024-03-02T05:35:14;97466.29688;;;;
44734;BME280;30462;52.446;-1.930;2024-03-02T05:36:14;97465.27344;;;;
44734;BME280;30462;52.446;-1.930;2024-03-02T05:37:14;97466.80469;;;;
44734;BME280;30462;52.446;-1.930;2024-03-02T05:38:13;97466.93359;;;;
44734;BME280;30462;52.446;-1.930;2024-03-02T05:39:14;97466.86328;;;;
44734;BME280;30462;52.446;-1.930;2024-03-02T05:40:14;97467.10156;;;;
44734;BME280;30462;52.446;-1.930;2024-03-02T05:41:14;97465.35547;;;;
44734;BME280;30462;52.446;-1.930;2024-03-02T05:42:14;97466.24609;;;;
44734;BME280;30462;52.446;-1.930;2024-03-02T05:43:14;97469.28906;;;;
44734;BME280;30462;52.446;-1.930;2024-03-02T05:44:14;97466.49219;;;;
44734;BME280;30462;52.446;-1.930;2024-03-02T05:45:13;97472.46875;;;;
44734;BME280;30462;52.446;-1.930;2024-03-02T05:46:14;97473.09375;;;;
44734;BME280;30462;52.446;-1.930;2024-03-02T05:47:14;97469.23438;;;;
44734;BME280;30462;52.446;-1.930;2024-03-02T05:48:14;97473.18359;;;;
44734;BME280;30462;52.446;-1.930;2024-03-02T05:49:14;97476.32813;;;;
44734;BME280;30462;52.446;-1.930;2024-03-02T05:50:14;97467.62109;;;;
44734;BME280;30462;52.446;-1.930;2024-03-02T05:51:13;97471.11328;;;;